createdAt,value
2018-07-09T04:00:54.619Z,89.20
2018-07-09T04:01:54.439Z,89.20
2018-07-09T04:03:47.137Z,88.91
2018-07-09T04:04:47.017Z,89.01
2018-07-09T04:06:39.685Z,88.91
2018-07-09T04:07:39.579Z,88.91
2018-07-09T04:09:32.283Z,88.81
2018-07-09T04:10:32.149Z,88.81
2018-07-09T04:12:24.833Z,88.81
2018-07-09T04:13:24.726Z,89.01
2018-07-09T04:15:17.430Z,88.81
2018-07-09T04:16:17.301Z,88.72
2018-07-09T04:18:09.980Z,89.01
2018-07-09T04:19:09.880Z,88.81
2018-07-09T04:21:02.675Z,88.72
2018-07-09T04:22:02.455Z,89.01
2018-07-09T04:23:55.128Z,88.81
2018-07-09T04:24:55.025Z,88.81
2018-07-09T04:26:47.715Z,88.86
2018-07-09T04:27:47.593Z,88.81
2018-07-09T04:29:40.268Z,89.39
2018-07-09T04:30:40.162Z,89.24
2018-07-09T04:32:32.860Z,89.91
2018-07-09T04:33:32.731Z,89.77
2018-07-09T04:35:25.419Z,90.39
2018-07-09T04:36:25.314Z,89.91
2018-07-09T04:38:18.013Z,89.81
2018-07-09T04:39:17.887Z,90.01
2018-07-09T04:41:10.567Z,90.39
2018-07-09T04:42:10.465Z,89.81
2018-07-09T04:44:03.162Z,89.91
2018-07-09T04:45:03.039Z,90.20
2018-07-09T04:46:55.718Z,90.39
2018-07-09T04:47:55.610Z,90.39
2018-07-09T04:49:48.304Z,90.20
2018-07-09T04:50:48.180Z,90.48
2018-07-09T04:52:40.863Z,89.91
2018-07-09T04:53:40.765Z,90.01
2018-07-09T04:55:33.451Z,91.16
2018-07-09T04:56:33.335Z,90.30
2018-07-09T04:58:26.010Z,90.96
2018-07-09T04:59:25.904Z,90.91
2018-07-09T05:01:18.596Z,90.39
2018-07-09T05:02:18.479Z,90.91
2018-07-09T05:04:11.152Z,90.44
2018-07-09T05:05:11.051Z,89.86
2018-07-09T05:07:03.741Z,89.95
2018-07-09T05:08:03.621Z,89.76
2018-07-09T05:09:56.299Z,89.76
2018-07-09T05:10:56.188Z,89.86
2018-07-09T05:12:48.893Z,89.29
2018-07-09T05:13:48.766Z,89.58
2018-07-09T05:15:41.447Z,89.58
2018-07-09T05:16:41.344Z,89.48
2018-07-09T05:18:34.040Z,89.67
2018-07-09T05:19:33.913Z,89.38
2018-07-09T05:21:26.591Z,89.90
2018-07-09T05:22:26.494Z,89.33
2018-07-09T05:24:19.189Z,90.00
2018-07-09T05:25:19.065Z,89.43
2018-07-09T05:27:11.754Z,89.52
2018-07-09T05:28:11.642Z,89.52
2018-07-09T05:30:04.338Z,90.09
2018-07-09T05:31:04.218Z,89.14
2018-07-09T05:32:56.892Z,89.33
2018-07-09T05:33:56.792Z,89.43
2018-07-09T05:35:49.490Z,88.85
2018-07-09T05:36:49.373Z,88.95
2018-07-09T05:38:42.051Z,88.76
2018-07-09T05:39:41.942Z,88.85
2018-07-09T05:41:34.640Z,88.70
2018-07-09T05:42:34.521Z,88.42
2018-07-09T05:44:27.202Z,89.09
2018-07-09T05:45:27.100Z,88.80
2018-07-09T05:47:19.803Z,88.80
2018-07-09T05:48:19.686Z,88.32
2018-07-09T05:50:12.361Z,88.13
2018-07-09T05:51:12.258Z,88.51
2018-07-09T05:53:04.953Z,87.55
2018-07-09T05:54:04.836Z,87.94
2018-07-09T05:55:57.516Z,87.70
2018-07-09T05:56:57.417Z,87.88
2018-07-09T05:58:50.142Z,87.12
2018-07-09T05:59:49.993Z,86.49
2018-07-09T06:01:42.678Z,86.11
2018-07-09T06:02:42.575Z,85.25
2018-07-09T06:04:35.276Z,84.42
2018-07-09T06:05:35.206Z,84.04
2018-07-09T06:07:27.839Z,81.40
2018-07-09T06:08:27.730Z,80.38
2018-07-09T06:10:20.437Z,78.50
2018-07-09T06:11:20.350Z,77.63
2018-07-09T06:13:13.003Z,76.32
2018-07-09T06:14:12.898Z,76.04
2018-07-09T06:16:05.601Z,75.84
2018-07-09T06:17:05.489Z,75.75
2018-07-09T06:18:58.171Z,74.44
2018-07-09T06:19:58.074Z,73.47
2018-07-09T06:21:50.781Z,73.22
2018-07-09T06:22:50.660Z,73.47
2018-07-09T06:24:43.345Z,71.49
2018-07-09T06:25:43.247Z,72.55
2018-07-09T06:27:35.960Z,74.25
2018-07-09T06:28:35.836Z,73.67
2018-07-09T06:30:28.541Z,74.79
2018-07-09T06:31:28.496Z,75.75
2018-07-09T06:33:21.152Z,75.94
2018-07-09T06:34:21.033Z,76.81
2018-07-09T06:36:13.748Z,76.14
2018-07-09T06:37:13.631Z,76.86
2018-07-09T06:39:06.314Z,76.96
2018-07-09T06:40:06.215Z,76.61
2018-07-09T06:41:58.923Z,75.46
2018-07-09T06:42:58.848Z,75.49
2018-07-09T06:44:51.493Z,74.92
2018-07-09T06:45:51.394Z,74.82
2018-07-09T06:47:44.105Z,73.32
2018-07-09T06:48:43.983Z,73.03
2018-07-09T06:50:36.678Z,71.97
2018-07-09T06:51:36.585Z,71.04
2018-07-09T06:53:29.435Z,70.18
2018-07-09T06:54:29.163Z,70.12
2018-07-09T06:56:21.854Z,68.71
2018-07-09T06:57:21.759Z,67.94
2018-07-09T06:59:14.468Z,69.25
2018-07-09T07:00:14.350Z,70.09
2018-07-09T07:02:07.046Z,69.48
2018-07-09T07:03:06.944Z,68.32
2018-07-09T07:04:59.658Z,67.07
2018-07-09T07:05:59.536Z,67.10
2018-07-09T07:07:52.230Z,66.97
2018-07-09T07:08:52.182Z,66.78
2018-07-09T07:10:44.845Z,67.00
2018-07-09T07:11:44.729Z,66.78
2018-07-09T07:13:37.416Z,67.52
2018-07-09T07:14:37.321Z,67.36
2018-07-09T07:16:30.031Z,67.36
2018-07-09T07:17:29.917Z,67.71
2018-07-09T07:19:22.611Z,68.38
2018-07-09T07:20:22.510Z,68.04
2018-07-09T07:22:15.221Z,59.86
2018-07-09T07:23:15.105Z,53.15
2018-07-09T07:25:07.808Z,44.96
2018-07-09T07:26:07.717Z,46.01
2018-07-09T07:28:00.441Z,41.79
2018-07-09T07:29:00.330Z,44.06
2018-07-09T07:30:53.032Z,45.79
2018-07-09T07:31:52.935Z,45.60
2018-07-09T07:33:45.657Z,49.32
2018-07-09T07:34:45.551Z,52.56
2018-07-09T07:36:38.253Z,56.61
2018-07-09T07:37:38.156Z,57.74
2018-07-09T07:39:30.887Z,58.51
2018-07-09T07:40:30.770Z,59.38
2018-07-09T07:42:23.473Z,58.51
2018-07-09T07:43:23.396Z,58.70
2018-07-09T07:45:16.097Z,60.51
2018-07-09T07:46:15.983Z,60.41
2018-07-09T07:48:08.678Z,59.55
2018-07-09T07:49:08.590Z,58.51
2018-07-09T07:51:01.308Z,57.48
2018-07-09T07:52:01.188Z,56.45
2018-07-09T07:53:53.889Z,57.96
2018-07-09T07:54:53.788Z,56.71
2018-07-09T07:56:46.516Z,55.96
2018-07-09T07:57:46.389Z,56.73
2018-07-09T07:59:39.086Z,57.38
2018-07-09T08:00:38.996Z,57.77
2018-07-09T08:02:31.705Z,58.06
2018-07-09T08:03:31.597Z,57.09
2018-07-09T08:05:24.288Z,58.03
2018-07-09T08:06:24.194Z,58.35
2018-07-09T08:08:16.919Z,58.10
2018-07-09T08:09:16.837Z,58.32
2018-07-09T08:11:11.674Z,58.97
2018-07-09T08:13:00.561Z,58.45
2018-07-09T08:14:02.107Z,59.64
2018-07-09T08:15:02.226Z,58.87
2018-07-09T08:16:54.680Z,57.74
2018-07-09T08:17:54.587Z,57.38
2018-07-09T08:19:47.308Z,53.04
2018-07-09T08:20:47.190Z,52.20
2018-07-09T08:22:39.885Z,51.90
2018-07-09T08:23:39.785Z,51.32
2018-07-09T08:25:32.726Z,50.57
2018-07-09T08:26:32.395Z,50.84
2018-07-09T08:28:25.088Z,51.64
2018-07-09T08:29:24.995Z,49.66
2018-07-09T08:31:17.796Z,47.57
2018-07-09T08:32:17.605Z,44.60
2018-07-09T08:34:10.308Z,42.50
2018-07-09T08:35:10.215Z,41.75
2018-07-09T08:37:02.937Z,39.84
2018-07-09T08:38:02.885Z,39.06
2018-07-09T08:39:55.539Z,38.61
2018-07-09T08:40:55.442Z,39.29
2018-07-09T08:42:48.173Z,39.10
2018-07-09T08:43:48.068Z,39.41
2018-07-09T08:45:40.922Z,43.36
2018-07-09T08:46:40.685Z,42.90
2018-07-09T08:48:33.412Z,45.34
2018-07-09T08:49:33.308Z,46.82
2018-07-09T08:51:26.018Z,48.37
2018-07-09T08:52:25.923Z,47.03
2018-07-09T08:54:18.653Z,46.77
2018-07-09T08:55:18.561Z,45.41
2018-07-09T08:57:11.249Z,46.38
2018-07-09T08:58:11.159Z,46.36
2018-07-09T09:00:03.883Z,48.66
2018-07-09T09:01:03.770Z,49.70
2018-07-09T09:02:56.487Z,49.61
2018-07-09T09:03:56.384Z,48.44
2018-07-09T09:05:49.104Z,48.93
2018-07-09T09:06:48.993Z,49.49
2018-07-09T09:08:41.696Z,49.77
2018-07-09T09:09:41.601Z,49.77
2018-07-09T09:11:34.323Z,49.68
2018-07-09T09:12:34.213Z,49.65
2018-07-09T09:14:26.907Z,50.24
2018-07-09T09:15:26.833Z,50.52
2018-07-09T09:17:19.536Z,51.28
2018-07-09T09:18:19.421Z,51.76
2018-07-09T09:20:12.121Z,51.95
2018-07-09T09:21:12.029Z,52.24
2018-07-09T09:23:04.740Z,52.80
2018-07-09T09:24:04.630Z,53.96
2018-07-09T09:25:57.324Z,52.80
2018-07-09T09:26:57.233Z,52.82
2018-07-09T09:28:49.949Z,52.63
2018-07-09T09:29:49.832Z,52.14
2018-07-09T09:31:42.550Z,53.31
2018-07-09T09:32:42.429Z,53.50
2018-07-09T09:34:35.126Z,52.44
2018-07-09T09:35:35.035Z,52.56
2018-07-09T09:37:27.796Z,52.63
2018-07-09T09:38:27.632Z,53.31
2018-07-09T09:40:20.343Z,53.59
2018-07-09T09:41:20.228Z,53.21
2018-07-09T09:43:13.038Z,53.86
2018-07-09T09:44:12.843Z,54.53
2018-07-09T09:46:05.609Z,54.83
2018-07-09T09:47:05.513Z,54.83
2018-07-09T09:48:58.226Z,56.71
2018-07-09T09:49:58.109Z,56.63
2018-07-09T09:51:50.812Z,54.47
2018-07-09T09:52:50.710Z,54.08
2018-07-09T09:54:43.452Z,53.99
2018-07-09T09:55:43.324Z,53.79
2018-07-09T09:57:36.009Z,55.24
2018-07-09T09:58:35.918Z,54.63
2018-07-09T10:00:28.653Z,55.38
2018-07-09T10:01:28.515Z,55.51
2018-07-09T10:03:21.213Z,55.96
2018-07-09T10:04:21.106Z,56.73
2018-07-09T10:06:13.836Z,56.83
2018-07-09T10:07:13.705Z,57.87
2018-07-09T10:09:06.404Z,57.31
2018-07-09T10:10:06.304Z,56.47
2018-07-09T10:11:59.020Z,55.41
2018-07-09T10:12:58.902Z,54.66
2018-07-09T10:14:51.594Z,56.11
2018-07-09T10:15:51.500Z,54.69
2018-07-09T10:17:44.215Z,53.26
2018-07-09T10:18:44.099Z,52.29
2018-07-09T10:20:36.799Z,53.33
2018-07-09T10:21:36.702Z,53.26
2018-07-09T10:23:29.424Z,53.17
2018-07-09T10:24:29.302Z,53.55
2018-07-09T10:26:21.998Z,53.26
2018-07-09T10:27:21.905Z,53.43
2018-07-09T10:29:14.619Z,53.63
2018-07-09T10:30:14.506Z,54.47
2018-07-09T10:32:07.209Z,54.85
2018-07-09T10:33:07.113Z,55.15
2018-07-09T10:34:59.828Z,55.53
2018-07-09T10:35:59.717Z,56.28
2018-07-09T10:37:52.410Z,57.21
2018-07-09T10:38:52.310Z,57.70
2018-07-09T10:40:45.029Z,58.18
2018-07-09T10:41:44.912Z,58.47
2018-07-09T10:43:37.626Z,58.64
2018-07-09T10:44:37.506Z,59.02
2018-07-09T10:46:30.204Z,58.67
2018-07-09T10:47:30.105Z,58.15
2018-07-09T10:49:22.824Z,57.99
2018-07-09T10:50:22.704Z,58.12
2018-07-09T10:52:15.402Z,57.92
2018-07-09T10:53:15.308Z,57.63
2018-07-09T10:55:08.072Z,58.37
2018-07-09T10:56:07.902Z,58.47
2018-07-09T10:58:00.593Z,58.93
2018-07-09T10:59:00.499Z,59.51
2018-07-09T11:00:53.263Z,59.89
2018-07-09T11:01:53.096Z,59.89
2018-07-09T11:03:45.803Z,60.38
2018-07-09T11:04:45.691Z,60.67
2018-07-09T11:06:38.387Z,61.51
2018-07-09T11:07:38.289Z,61.89
2018-07-09T11:09:30.998Z,61.86
2018-07-09T11:10:30.879Z,61.57
2018-07-09T11:12:23.579Z,61.70
2018-07-09T11:13:23.479Z,61.67
2018-07-09T11:15:16.192Z,61.99
2018-07-09T11:16:16.172Z,61.67
2018-07-09T11:18:08.765Z,61.70
2018-07-09T11:19:08.669Z,61.70
2018-07-09T11:21:01.377Z,61.70
2018-07-09T11:22:01.256Z,62.73
2018-07-09T11:23:53.961Z,62.15
2018-07-09T11:24:53.849Z,62.82
2018-07-09T11:26:46.544Z,62.89
2018-07-09T11:27:46.447Z,63.79
2018-07-09T11:29:39.152Z,64.05
2018-07-09T11:30:39.032Z,63.95
2018-07-09T11:32:31.723Z,63.85
2018-07-09T11:33:31.630Z,64.05
2018-07-09T11:35:24.429Z,63.89
2018-07-09T11:36:24.281Z,63.12
2018-07-09T11:38:16.927Z,62.92
2018-07-09T11:39:16.826Z,63.21
2018-07-09T11:41:09.505Z,62.28
2018-07-09T11:42:09.432Z,61.89
2018-07-09T11:44:02.124Z,62.73
2018-07-09T11:45:02.008Z,63.31
2018-07-09T11:46:54.698Z,61.80
2018-07-09T11:47:54.594Z,61.34
2018-07-09T11:49:47.312Z,59.73
2018-07-09T11:50:47.192Z,58.89
2018-07-09T11:52:39.879Z,58.44
2018-07-09T11:53:39.787Z,58.34
2018-07-09T11:55:32.503Z,57.95
2018-07-09T11:56:32.389Z,57.28
2018-07-09T11:58:25.113Z,56.79
2018-07-09T11:59:24.986Z,57.28
2018-07-09T12:01:17.677Z,58.04
2018-07-09T12:02:17.585Z,57.82
2018-07-09T12:04:10.314Z,58.44
2018-07-09T12:05:10.188Z,57.63
2018-07-09T12:07:02.886Z,58.50
2018-07-09T12:08:02.788Z,58.60
2018-07-09T12:09:55.503Z,58.98
2018-07-09T12:10:55.379Z,57.54
2018-07-09T12:12:48.076Z,56.73
2018-07-09T12:13:47.978Z,57.89
2018-07-09T12:15:40.693Z,57.60
2018-07-09T12:16:40.578Z,57.41
2018-07-09T12:18:33.272Z,56.67
2018-07-09T12:19:33.176Z,56.37
2018-07-09T12:21:25.892Z,55.82
2018-07-09T12:22:25.779Z,55.34
2018-07-09T12:24:18.479Z,55.24
2018-07-09T12:25:18.375Z,56.28
2018-07-09T12:27:11.093Z,56.37
2018-07-09T12:28:10.975Z,56.28
2018-07-09T12:30:03.671Z,55.92
2018-07-09T12:31:03.573Z,55.11
2018-07-09T12:32:56.282Z,54.35
2018-07-09T12:33:56.166Z,55.24
2018-07-09T12:35:48.860Z,56.02
2018-07-09T12:36:48.759Z,55.73
2018-07-09T12:38:41.483Z,55.15
2018-07-09T12:39:41.365Z,54.98
2018-07-09T12:41:34.056Z,54.11
2018-07-09T12:42:33.965Z,54.39
2018-07-09T12:44:26.684Z,53.65
2018-07-09T12:45:26.565Z,53.75
2018-07-09T12:47:19.260Z,53.55
2018-07-09T12:48:19.164Z,53.67
2018-07-09T12:50:11.888Z,52.61
2018-07-09T12:51:11.774Z,53.39
2018-07-09T12:53:04.471Z,52.87
2018-07-09T12:54:04.370Z,52.97
2018-07-09T12:55:57.088Z,52.32
2018-07-09T12:56:56.976Z,53.49
2018-07-09T12:58:49.674Z,52.12
2018-07-09T12:59:49.576Z,51.93
2018-07-09T13:01:42.336Z,52.03
2018-07-09T13:02:42.187Z,52.25
2018-07-09T13:04:34.886Z,52.34
2018-07-09T13:05:34.793Z,50.79
2018-07-09T13:07:27.501Z,50.53
2018-07-09T13:08:27.399Z,51.47
2018-07-09T13:10:20.090Z,51.06
2018-07-09T13:11:19.992Z,51.35
2018-07-09T13:13:12.707Z,51.25
2018-07-09T13:14:12.590Z,51.54
2018-07-09T13:16:05.287Z,51.54
2018-07-09T13:17:05.196Z,52.58
2018-07-09T13:18:57.912Z,52.68
2018-07-09T13:19:57.859Z,52.78
2018-07-09T13:21:50.485Z,52.58
2018-07-09T13:22:50.394Z,52.58
2018-07-09T13:24:43.103Z,52.78
2018-07-09T13:25:42.993Z,52.29
2018-07-09T13:27:35.680Z,53.50
2018-07-09T13:28:35.581Z,53.33
2018-07-09T13:30:28.295Z,53.14
2018-07-09T13:31:28.182Z,54.01
2018-07-09T13:33:20.884Z,54.37
2018-07-09T13:34:20.795Z,53.89
2018-07-09T13:36:13.493Z,54.27
2018-07-09T13:37:13.381Z,53.72
2018-07-09T13:39:06.080Z,53.91
2018-07-09T13:40:05.980Z,54.01
2018-07-09T13:41:58.693Z,54.01
2018-07-09T13:42:58.577Z,54.01
2018-07-09T13:44:51.269Z,54.30
2018-07-09T13:45:51.168Z,53.45
2018-07-09T13:47:43.877Z,52.58
2018-07-09T13:48:43.766Z,52.58
2018-07-09T13:50:36.463Z,52.00
2018-07-09T13:51:36.367Z,52.32
2018-07-09T13:53:29.087Z,51.93
2018-07-09T13:54:28.971Z,52.32
2018-07-09T13:56:21.659Z,52.87
2018-07-09T13:57:21.558Z,52.58
2018-07-09T13:59:14.296Z,52.22
2018-07-09T14:00:14.180Z,52.49
2018-07-09T14:02:06.871Z,53.36
2018-07-09T14:03:06.777Z,53.00
2018-07-09T14:04:59.503Z,53.26
2018-07-09T14:05:59.377Z,53.85
2018-07-09T14:07:52.065Z,54.11
2018-07-09T14:08:51.974Z,53.99
2018-07-09T14:10:44.693Z,55.43
2018-07-09T14:11:44.567Z,56.60
2018-07-09T14:13:37.260Z,56.02
2018-07-09T14:14:37.164Z,55.82
2018-07-09T14:16:29.887Z,55.82
2018-07-09T14:17:29.755Z,55.99
2018-07-09T14:19:22.449Z,56.47
2018-07-09T14:20:22.359Z,56.73
2018-07-09T14:22:15.080Z,57.79
2018-07-09T14:23:14.942Z,58.37
2018-07-09T14:25:07.632Z,58.37
2018-07-09T14:26:07.536Z,58.28
2018-07-09T14:28:00.242Z,58.18
2018-07-09T14:29:00.128Z,58.37
2018-07-09T14:30:52.816Z,58.25
2018-07-09T14:31:52.721Z,58.25
2018-07-09T14:33:45.432Z,59.02
2018-07-09T14:34:45.311Z,58.93
2018-07-09T14:36:38.009Z,59.25
2018-07-09T14:37:37.910Z,59.15
2018-07-09T14:39:30.619Z,58.47
2018-07-09T14:40:30.508Z,58.47
2018-07-09T14:42:23.188Z,58.25
2018-07-09T14:43:23.090Z,58.37
2018-07-09T14:45:15.823Z,58.35
2018-07-09T14:46:15.682Z,58.73
2018-07-09T14:48:08.390Z,59.51
2018-07-09T14:49:08.280Z,59.80
2018-07-09T14:51:00.964Z,60.25
2018-07-09T14:52:00.869Z,61.70
2018-07-09T14:53:53.573Z,62.37
2018-07-09T14:54:53.461Z,62.37
2018-07-09T14:56:46.149Z,64.21
2018-07-09T14:57:46.053Z,66.53
2018-07-09T14:59:38.775Z,65.27
2018-07-09T15:00:38.649Z,64.31
2018-07-09T15:02:31.339Z,66.24
2018-07-09T15:03:31.243Z,66.17
2018-07-09T15:05:23.948Z,64.34
2018-07-09T15:06:23.836Z,64.72
2018-07-09T15:08:16.524Z,63.21
2018-07-09T15:09:16.428Z,62.24
2018-07-09T15:11:09.144Z,61.95
2018-07-09T15:12:09.022Z,62.05
2018-07-09T15:14:01.714Z,60.89
2018-07-09T15:15:01.613Z,61.60
2018-07-09T15:16:54.326Z,61.11
2018-07-09T15:17:54.210Z,60.44
2018-07-09T15:19:46.905Z,59.66
2018-07-09T15:20:46.804Z,60.05
2018-07-09T15:22:39.528Z,60.82
2018-07-09T15:23:39.415Z,60.34
2018-07-09T15:25:32.099Z,59.59
2018-07-09T15:26:32.009Z,59.59
2018-07-09T15:28:24.716Z,58.53
2018-07-09T15:29:24.603Z,59.01
2018-07-09T15:31:17.296Z,58.01
2018-07-09T15:32:17.197Z,57.33
2018-07-09T15:34:09.922Z,56.77
2018-07-09T15:35:09.799Z,55.13
2018-07-09T15:37:02.502Z,56.36
2018-07-09T15:38:02.403Z,56.92
2018-07-09T15:39:55.122Z,58.53
2018-07-09T15:40:55.004Z,58.34
2018-07-09T15:42:47.698Z,58.14
2018-07-09T15:43:47.600Z,58.44
2018-07-09T15:45:40.316Z,58.14
2018-07-09T15:46:40.199Z,58.72
2018-07-09T15:48:32.893Z,57.56
2018-07-09T15:49:32.791Z,57.28
2018-07-09T15:51:25.508Z,58.44
2018-07-09T15:52:25.390Z,57.82
2018-07-09T15:54:18.239Z,57.92
2018-07-09T15:55:17.986Z,58.02
2018-07-09T15:57:10.695Z,58.86
2018-07-09T15:58:10.577Z,58.47
2018-07-09T16:00:03.328Z,59.25
2018-07-09T16:01:03.181Z,59.83
2018-07-09T16:02:56.033Z,59.25
2018-07-09T16:03:55.774Z,60.09
2018-07-09T16:05:48.466Z,60.09
2018-07-09T16:06:48.366Z,60.09
2018-07-09T16:08:41.077Z,59.44
2018-07-09T16:09:40.961Z,59.53
2018-07-09T16:11:33.657Z,59.44
2018-07-09T16:12:33.562Z,59.47
2018-07-09T16:14:26.269Z,58.60
2018-07-09T16:15:26.153Z,58.60
2018-07-09T16:17:18.845Z,58.02
2018-07-09T16:18:18.754Z,58.21
2018-07-09T16:20:11.464Z,57.95
2018-07-09T16:21:11.353Z,58.14
2018-07-09T16:23:04.043Z,57.37
2018-07-09T16:24:03.947Z,56.70
2018-07-09T16:25:56.657Z,57.95
2018-07-09T16:26:56.543Z,58.31
2018-07-09T16:28:49.332Z,59.05
2018-07-09T16:29:49.137Z,59.44
2018-07-09T16:31:41.843Z,59.83
2018-07-09T16:32:41.727Z,60.86
2018-07-09T16:34:34.423Z,62.28
2018-07-09T16:35:34.326Z,62.37
2018-07-09T16:37:27.029Z,63.43
2018-07-09T16:38:26.921Z,63.89
2018-07-09T16:40:19.641Z,63.79
2018-07-09T16:41:19.518Z,64.28
2018-07-09T16:43:12.204Z,63.24
2018-07-09T16:44:12.110Z,62.86
2018-07-09T16:46:04.812Z,62.95
2018-07-09T16:47:04.810Z,62.95
2018-07-09T16:48:57.427Z,63.12
2018-07-09T16:49:57.298Z,63.24
2018-07-09T16:51:50.015Z,63.05
2018-07-09T16:52:49.891Z,63.34
2018-07-09T16:54:42.624Z,63.50
2018-07-09T16:55:42.481Z,63.89
2018-07-09T16:57:35.195Z,63.89
2018-07-09T16:58:35.066Z,63.50
2018-07-09T17:00:27.757Z,64.28
2018-07-09T17:01:27.665Z,63.89
2018-07-09T17:03:20.443Z,62.92
2018-07-09T17:04:20.268Z,63.02
2018-07-09T17:06:12.943Z,64.18
2018-07-09T17:07:12.843Z,64.43
2018-07-09T17:09:05.570Z,64.53
2018-07-09T17:10:05.444Z,64.86
2018-07-09T17:11:58.138Z,64.47
2018-07-09T17:12:58.033Z,64.92
2018-07-09T17:14:50.749Z,65.20
2018-07-09T17:15:50.631Z,65.88
2018-07-09T17:17:43.322Z,67.10
2018-07-09T17:18:43.221Z,66.82
2018-07-09T17:20:35.932Z,67.49
2018-07-09T17:21:35.813Z,67.84
2018-07-09T17:23:28.502Z,68.42
2018-07-09T17:24:28.401Z,68.42
2018-07-09T17:26:21.173Z,68.65
2018-07-09T17:27:21.064Z,67.74
2018-07-09T17:29:13.687Z,67.94
2018-07-09T17:30:13.593Z,68.42
2018-07-09T17:32:06.338Z,67.58
2018-07-09T17:33:06.177Z,68.16
2018-07-09T17:34:58.921Z,67.94
2018-07-09T17:35:58.765Z,67.74
2018-07-09T17:37:51.487Z,66.91
2018-07-09T17:38:51.429Z,67.36
2018-07-09T17:40:44.053Z,68.52
2018-07-09T17:41:43.952Z,68.32
2018-07-09T17:43:36.677Z,68.90
2018-07-09T17:44:36.543Z,68.32
2018-07-09T17:46:29.230Z,69.54
2018-07-09T17:47:29.126Z,69.64
2018-07-09T17:49:21.837Z,69.54
2018-07-09T17:50:21.720Z,70.02
2018-07-09T17:52:14.404Z,70.37
2018-07-09T17:53:14.315Z,71.24
2018-07-09T17:55:07.026Z,70.92
2018-07-09T17:56:06.896Z,71.88
2018-07-09T17:57:59.583Z,71.97
2018-07-09T17:58:59.483Z,71.69
2018-07-09T18:00:52.340Z,71.69
2018-07-09T18:01:52.085Z,71.78
2018-07-09T18:03:44.784Z,72.17
2018-07-09T18:04:44.686Z,73.03
2018-07-09T18:06:37.389Z,73.57
2018-07-09T18:07:37.271Z,73.57
2018-07-09T18:09:29.964Z,73.47
2018-07-09T18:10:29.907Z,73.99
2018-07-09T18:12:22.578Z,73.38
2018-07-09T18:13:22.450Z,73.47
2018-07-09T18:15:15.133Z,73.28
2018-07-09T18:16:15.030Z,72.80
2018-07-09T18:18:07.735Z,73.09
2018-07-09T18:19:07.622Z,73.28
2018-07-09T18:21:00.294Z,73.38
2018-07-09T18:22:00.199Z,72.61
2018-07-09T18:23:52.908Z,72.32
2018-07-09T18:24:52.795Z,72.13
2018-07-09T18:26:45.474Z,71.75
2018-07-09T18:27:45.374Z,71.36
2018-07-09T18:29:38.093Z,70.94
2018-07-09T18:30:37.959Z,70.75
2018-07-09T18:32:30.691Z,71.04
2018-07-09T18:33:30.542Z,71.36
2018-07-09T18:35:23.290Z,71.17
2018-07-09T18:36:23.125Z,71.17
2018-07-09T18:38:15.815Z,71.08
2018-07-09T18:39:15.712Z,70.98
2018-07-09T18:41:08.416Z,71.17
2018-07-09T18:42:08.397Z,70.75
2018-07-09T18:44:00.975Z,70.88
2018-07-09T18:45:01.046Z,71.14
2018-07-09T18:46:53.580Z,70.94
2018-07-09T18:47:53.477Z,71.23
2018-07-09T18:49:46.149Z,71.42
2018-07-09T18:50:46.037Z,71.71
2018-07-09T18:52:38.739Z,73.06
2018-07-09T18:53:38.621Z,72.86
2018-07-09T18:55:31.308Z,72.19
2018-07-09T18:56:31.204Z,72.58
2018-07-09T18:58:23.979Z,73.06
2018-07-09T18:59:23.815Z,72.96
2018-07-09T19:01:16.488Z,72.92
2018-07-09T19:02:16.387Z,72.96
2018-07-09T19:04:09.088Z,72.96
2018-07-09T19:05:08.985Z,72.73
2018-07-09T19:07:01.656Z,73.06
2018-07-09T19:08:01.578Z,72.77
2018-07-09T19:09:54.257Z,72.96
2018-07-09T19:10:54.140Z,73.44
2018-07-09T19:12:46.831Z,73.60
2018-07-09T19:13:46.725Z,73.88
2018-07-09T19:15:39.488Z,74.37
2018-07-09T19:16:39.316Z,74.27
2018-07-09T19:18:32.006Z,74.27
2018-07-09T19:19:31.902Z,74.37
2018-07-09T19:21:24.695Z,74.55
2018-07-09T19:22:24.517Z,74.17
2018-07-09T19:24:17.209Z,74.55
2018-07-09T19:25:17.081Z,74.75
2018-07-09T19:27:09.848Z,74.94
2018-07-09T19:28:09.718Z,74.75
2018-07-09T19:30:02.347Z,74.94
2018-07-09T19:31:02.261Z,74.94
2018-07-09T19:32:54.962Z,74.94
2018-07-09T19:33:54.871Z,75.04
2018-07-09T19:35:47.517Z,74.46
2018-07-09T19:36:47.501Z,73.88
2018-07-09T19:38:40.127Z,74.08
2018-07-09T19:39:40.009Z,73.98
2018-07-09T19:41:32.701Z,73.60
2018-07-09T19:42:32.591Z,73.31
2018-07-09T19:44:25.294Z,73.98
2018-07-09T19:45:25.170Z,73.98
2018-07-09T19:47:17.851Z,73.88
2018-07-09T19:48:17.753Z,73.31
2018-07-09T19:50:10.461Z,73.60
2018-07-09T19:51:10.328Z,73.31
2018-07-09T19:53:03.017Z,72.73
2018-07-09T19:54:02.916Z,73.11
2018-07-09T19:55:55.630Z,72.25
2018-07-09T19:56:55.513Z,72.25
2018-07-09T19:58:48.195Z,72.44
2018-07-09T19:59:48.089Z,71.58
2018-07-09T20:01:40.997Z,71.00
2018-07-09T20:02:40.856Z,70.72
2018-07-09T20:04:33.687Z,70.90
2018-07-09T20:05:33.546Z,70.90
2018-07-09T20:07:26.148Z,70.23
2018-07-09T20:08:26.016Z,70.43
2018-07-09T20:10:18.707Z,70.04
2018-07-09T20:11:18.604Z,70.04
2018-07-09T20:13:11.314Z,69.85
2018-07-09T20:14:11.435Z,70.29
2018-07-09T20:16:03.878Z,70.10
2018-07-09T20:17:03.769Z,70.39
2018-07-09T20:18:56.554Z,70.87
2018-07-09T20:19:56.429Z,70.97
2018-07-09T20:21:49.271Z,70.78
2018-07-09T20:22:49.017Z,70.39
2018-07-09T20:24:41.727Z,70.20
2018-07-09T20:25:41.605Z,69.91
2018-07-09T20:27:34.285Z,70.10
2018-07-09T20:28:34.180Z,70.29
2018-07-09T20:30:26.890Z,69.34
2018-07-09T20:31:26.762Z,68.95
2018-07-09T20:33:19.450Z,68.85
2018-07-09T20:34:19.347Z,67.61
2018-07-09T20:36:12.062Z,67.51
2018-07-09T20:37:11.930Z,68.34
2018-07-09T20:39:04.616Z,68.44
2018-07-09T20:40:04.546Z,68.15
2018-07-09T20:41:57.358Z,68.73
2018-07-09T20:42:57.098Z,68.63
2018-07-09T20:44:49.781Z,68.53
2018-07-09T20:45:49.739Z,67.96
2018-07-09T20:47:42.383Z,67.86
2018-07-09T20:48:42.279Z,67.86
2018-07-09T20:50:34.955Z,68.34
2018-07-09T20:51:34.856Z,68.24
2018-07-09T20:53:27.619Z,68.15
2018-07-09T20:54:27.505Z,68.30
2018-07-09T20:56:20.188Z,68.40
2018-07-09T20:57:20.091Z,67.83
2018-07-09T20:59:12.792Z,68.40
2018-07-09T21:00:12.667Z,67.73
2018-07-09T21:02:05.348Z,67.29
2018-07-09T21:03:05.247Z,67.38
2018-07-09T21:04:57.950Z,66.90
2018-07-09T21:05:57.832Z,67.09
2018-07-09T21:07:50.536Z,66.42
2018-07-09T21:08:50.406Z,66.96
2018-07-09T21:10:43.088Z,67.06
2018-07-09T21:11:42.984Z,66.96
2018-07-09T21:13:35.708Z,67.73
2018-07-09T21:14:35.563Z,67.16
2018-07-09T21:16:28.403Z,67.35
2018-07-09T21:17:28.148Z,67.54
2018-07-09T21:19:20.843Z,67.06
2018-07-09T21:20:20.725Z,66.77
2018-07-09T21:22:13.431Z,66.67
2018-07-09T21:23:13.317Z,66.67
2018-07-09T21:25:06.013Z,66.77
2018-07-09T21:26:05.890Z,66.86
2018-07-09T21:27:58.570Z,67.35
2018-07-09T21:28:58.475Z,67.25
2018-07-09T21:30:51.181Z,67.16
2018-07-09T21:31:51.054Z,67.16
2018-07-09T21:33:43.730Z,66.67
2018-07-09T21:34:43.633Z,66.39
2018-07-09T21:36:36.342Z,66.58
2018-07-09T21:37:36.330Z,66.49
2018-07-09T21:39:28.888Z,66.49
2018-07-09T21:40:28.794Z,66.49
2018-07-09T21:42:21.487Z,66.58
2018-07-09T21:43:21.362Z,66.58
2018-07-09T21:45:14.048Z,66.10
2018-07-09T21:46:13.949Z,66.49
2018-07-09T21:48:10.554Z,66.49
2018-07-09T21:49:06.526Z,66.58
2018-07-09T21:50:59.204Z,66.58
2018-07-09T21:51:59.100Z,66.67
2018-07-09T21:53:51.824Z,66.39
2018-07-09T21:54:51.710Z,65.33
2018-07-09T21:56:44.366Z,65.14
2018-07-09T21:57:44.262Z,65.62
2018-07-09T21:59:36.966Z,65.23
